Time;durP1;ratioP1;P1;durP2;ratioP2;P2;SDS_P1;SDS_P2;PMS_P1;PMS_P2;Temp;Humidity;BMP_temperature;BMP_pressure;BME280_temperature;BME280_humidity;BME280_pressure;Samples;Min_cycle;Max_cycle;Signal;HPM_P1;HPM_P2
2022/01/08 00:01:47;;;;;;;76.27;37.53;;;;;;;-2.96;65.46;101486.19;125272;1098;104168;-80
2022/01/08 00:04:16;;;;;;;;;;;;;;;-2.99;65.88;101491.00;125270;1099;104219;-80
2022/01/08 00:06:47;;;;;;;75.97;37.30;;;;;;;-3.02;65.86;101482.98;125234;1099;104197;-80
2022/01/08 00:09:19;;;;;;;71.50;35.10;;;;;;;-3.05;66.17;101477.52;125324;1099;104220;-80
2022/01/08 00:11:50;;;;;;;70.23;34.87;;;;;;;-3.09;65.94;101478.83;125255;1099;104208;-80
2022/01/08 00:14:24;;;;;;;68.67;33.77;;;;;;;-3.12;65.60;101478.50;125342;1099;104223;-80
2022/01/08 00:16:55;;;;;;;68.40;32.88;;;;;;;-3.13;66.36;101484.41;125327;1099;104166;-80
2022/01/08 00:19:28;;;;;;;69.60;34.57;;;;;;;-3.15;66.63;101478.18;125208;1099;104169;-80
2022/01/08 00:21:59;;;;;;;71.97;36.10;;;;;;;-3.17;66.44;101473.66;125324;1099;104226;-80
2022/01/08 00:24:31;;;;;;;74.43;35.70;;;;;;;-3.19;65.61;101475.16;125315;1099;104142;-80
2022/01/08 00:27:04;;;;;;;75.00;37.73;;;;;;;-3.21;65.72;101475.00;125302;1099;105105;-80
2022/01/08 00:29:35;;;;;;;77.07;38.83;;;;;;;-3.21;66.23;101472.43;125287;1099;104165;-80
2022/01/08 00:32:10;;;;;;;82.13;39.23;;;;;;;-3.23;65.66;101473.91;125342;1099;104172;-80
2022/01/08 00:34:41;;;;;;;80.83;39.53;;;;;;;-3.22;66.80;101474.83;125305;1099;104153;-80
2022/01/08 00:37:21;;;;;;;83.93;41.00;;;;;;;-3.22;66.82;101460.33;125343;1099;104245;-80
2022/01/08 00:39:55;;;;;;;81.10;39.13;;;;;;;-3.22;66.80;101464.56;125287;1099;104143;-80
2022/01/08 00:42:27;;;;;;;81.65;40.90;;;;;;;-3.22;65.94;101460.33;125261;1099;104168;-80
2022/01/08 00:44:58;;;;;;;76.37;38.27;;;;;;;-3.23;66.87;101458.50;125300;1099;104171;-80
2022/01/08 00:47:29;;;;;;;82.00;40.50;;;;;;;-3.25;66.02;101454.88;125310;1099;104255;-80
2022/01/08 00:50:03;;;;;;;78.93;40.73;;;;;;;-3.26;66.54;101453.04;125276;1099;104214;-80
2022/01/08 00:52:35;;;;;;;83.47;44.83;;;;;;;-3.24;66.87;101456.70;125314;1099;104146;-80
2022/01/08 00:55:07;;;;;;;82.83;43.73;;;;;;;-3.23;66.51;101452.47;125283;1099;104585;-80
2022/01/08 00:57:39;;;;;;;84.23;43.30;;;;;;;-3.22;66.28;101444.92;125231;1099;104143;-80
2022/01/08 01:00:15;;;;;;;88.97;45.97;;;;;;;-3.21;66.21;101450.95;125318;1099;104149;-80
2022/01/08 01:02:46;;;;;;;84.13;45.70;;;;;;;-3.20;66.43;101445.09;125255;1099;104722;-80
2022/01/08 01:05:19;;;;;;;84.83;43.20;;;;;;;-3.19;66.93;101450.38;125365;1099;104146;-79
2022/01/08 01:07:50;;;;;;;76.23;37.93;;;;;;;-3.21;67.11;101449.33;125242;1099;104475;-80
2022/01/08 01:10:21;;;;;;;76.60;36.33;;;;;;;-3.25;66.60;101440.37;125331;1099;104210;-80
2022/01/08 01:12:53;;;;;;;73.57;34.70;;;;;;;-3.29;67.12;101440.81;125319;1099;104198;-80
2022/01/08 01:15:24;;;;;;;67.03;32.03;;;;;;;-3.34;67.26;101439.39;125321;1099;104171;-80
2022/01/08 01:17:55;;;;;;;67.13;33.33;;;;;;;-3.38;67.57;101432.14;125304;1099;104252;-81
2022/01/08 01:20:27;;;;;;;65.30;31.83;;;;;;;-3.40;66.85;101436.17;125268;1099;104586;-80
2022/01/08 01:23:06;;;;;;;68.27;32.37;;;;;;;-3.44;66.48;101432.39;125220;1099;104593;-80
2022/01/08 01:25:41;;;;;;;68.83;33.60;;;;;;;-3.44;67.26;101431.48;125337;1099;104316;-80
2022/01/08 01:41:08;;;;;;;65.47;33.97;;;;;;;-3.39;66.76;101422.61;125355;1099;101594;-80
2022/01/08 01:42:51;;;;;;;62.60;30.70;;;;;;;-3.19;66.79;101413.55;125302;1099;104152;-80
2022/01/08 01:48:12;;;;;;;67.77;31.77;;;;;;;-3.16;68.38;101408.73;125305;1099;104635;-80
2022/01/08 01:50:43;;;;;;;74.07;34.27;;;;;;;-3.12;67.69;101398.02;125306;1099;104297;-80
2022/01/08 01:53:17;;;;;;;71.67;33.83;;;;;;;-3.05;67.91;101397.91;125366;1099;104153;-81
2022/01/08 01:55:50;;;;;;;73.40;33.45;;;;;;;-2.98;67.68;101390.08;125274;1099;104290;-80
2022/01/08 01:58:22;;;;;;;73.67;33.92;;;;;;;-2.90;67.89;101390.88;125311;1099;104210;-81
2022/01/08 02:00:54;;;;;;;70.87;33.63;;;;;;;-2.81;67.46;101388.36;125306;1099;104270;-80
2022/01/08 02:03:25;;;;;;;74.57;34.10;;;;;;;-2.73;67.13;101384.91;125283;1099;104271;-81
2022/01/08 02:06:02;;;;;;;74.20;36.17;;;;;;;-2.64;68.31;101390.98;125382;1099;104140;-81
2022/01/08 02:08:35;;;;;;;70.40;36.27;;;;;;;-2.59;68.18;101391.45;125363;1099;104259;-81
2022/01/08 02:11:07;;;;;;;67.37;34.43;;;;;;;-2.57;67.81;101379.66;125333;1099;104159;-81
2022/01/08 02:13:39;;;;;;;72.47;35.40;;;;;;;-2.54;67.20;101383.48;125388;1099;104576;-80
2022/01/08 02:16:16;;;;;;;73.50;35.67;;;;;;;-2.50;67.87;101373.51;125300;1099;104258;-81
2022/01/08 02:18:50;;;;;;;73.57;36.43;;;;;;;-2.47;67.44;101372.15;125284;1099;104268;-81
2022/01/08 02:21:21;;;;;;;76.33;35.23;;;;;;;-2.44;68.44;101376.70;125289;1099;104232;-80
2022/01/08 02:23:53;;;;;;;75.40;35.63;;;;;;;-2.44;68.58;101366.42;125342;1099;104236;-80
2022/01/08 02:26:27;;;;;;;73.27;35.10;;;;;;;-2.42;68.82;101377.75;125360;1099;104280;-81
2022/01/08 02:28:58;;;;;;;76.40;34.70;;;;;;;-2.42;67.92;101372.61;125249;1099;104797;-80
2022/01/08 02:31:29;;;;;;;74.70;37.00;;;;;;;-2.41;67.37;101379.59;125361;1099;104143;-80
2022/01/08 02:34:02;;;;;;;74.47;33.40;;;;;;;-2.40;67.91;101369.45;126338;1099;104146;-81
2022/01/08 02:36:33;;;;;;;72.23;35.63;;;;;;;-2.36;68.46;101371.56;126374;1098;104188;-81
2022/01/08 02:39:08;;;;;;;71.70;35.90;;;;;;;-2.31;68.46;101358.27;126367;1099;104325;-81
2022/01/08 02:41:40;;;;;;;70.63;36.50;;;;;;;-2.31;68.23;101355.70;126342;1099;104184;-80
2022/01/08 02:44:12;;;;;;;72.83;35.60;;;;;;;-2.29;68.59;101361.90;126395;1099;104168;-80
2022/01/08 02:46:44;;;;;;;74.70;37.53;;;;;;;-2.26;68.52;101365.70;125477;1099;104642;-80
2022/01/08 02:49:16;;;;;;;71.53;35.73;;;;;;;-2.20;69.01;101356.04;126360;1099;104139;-80
2022/01/08 02:51:47;;;;;;;70.40;35.77;;;;;;;-2.14;68.76;101365.11;126332;1099;104149;-81
2022/01/08 02:54:19;;;;;;;74.80;34.90;;;;;;;-2.09;68.08;101356.19;126338;1099;104303;-81
2022/01/08 02:56:51;;;;;;;70.70;31.67;;;;;;;-2.02;67.89;101350.91;126430;1099;104248;-80
2022/01/08 02:59:22;;;;;;;69.15;34.95;;;;;;;-2.00;68.16;101354.52;126349;1099;104230;-80
2022/01/08 03:01:54;;;;;;;70.13;35.33;;;;;;;-1.93;67.96;101358.61;126375;1099;104274;-80
2022/01/08 03:04:26;;;;;;;71.00;33.87;;;;;;;-1.91;68.95;101359.69;126384;1098;104625;-80
2022/01/08 03:06:57;;;;;;;76.87;35.33;;;;;;;-1.88;68.92;101353.17;126368;1099;104169;-81
2022/01/08 03:09:30;;;;;;;69.33;34.43;;;;;;;-1.85;68.18;101360.30;126333;1099;104245;-80
2022/01/08 03:12:01;;;;;;;67.93;34.13;;;;;;;-1.82;68.07;101368.31;126346;1099;104297;-81
2022/01/08 03:14:33;;;;;;;71.40;33.93;;;;;;;-1.77;68.66;101369.67;126406;1099;104146;-80
2022/01/08 03:17:05;;;;;;;71.47;34.80;;;;;;;-1.75;68.09;101368.14;126383;1099;104172;-81
2022/01/08 03:19:42;;;;;;;62.00;32.70;;;;;;;-1.72;68.57;101359.83;126281;1099;105380;-80
2022/01/08 03:22:14;;;;;;;58.50;30.03;;;;;;;-1.67;68.08;101363.75;126399;1099;104152;-80
2022/01/08 03:24:45;;;;;;;53.33;25.07;;;;;;;-1.64;68.53;101354.69;126348;1098;104158;-80
2022/01/08 03:27:17;;;;;;;59.37;30.07;;;;;;;-1.60;68.48;101361.03;126371;1099;104149;-81
2022/01/08 03:29:50;;;;;;;58.00;29.03;;;;;;;-1.56;69.20;101351.94;126324;1099;104319;-80
2022/01/08 03:32:22;;;;;;;57.37;27.57;;;;;;;-1.58;68.36;101346.64;126350;1099;104174;-80
2022/01/08 03:34:54;;;;;;;54.50;26.20;;;;;;;-1.58;68.50;101348.31;126375;1099;104153;-80
2022/01/08 03:37:25;;;;;;;54.27;27.00;;;;;;;-1.59;67.98;101349.99;126377;1099;104638;-80
2022/01/08 03:39:56;;;;;;;48.87;23.00;;;;;;;-1.55;68.96;101354.66;126321;1099;104254;-81
2022/01/08 03:42:28;;;;;;;53.83;25.47;;;;;;;-1.52;68.69;101354.95;126347;1099;104339;-80
2022/01/08 03:44:59;;;;;;;54.00;24.97;;;;;;;-1.50;68.16;101353.43;126388;1099;104238;-80
2022/01/08 03:47:52;;;;;;;46.05;22.80;;;;;;;-1.48;68.40;101356.16;126407;1099;104153;-80
2022/01/08 03:50:27;;;;;;;44.97;21.17;;;;;;;-1.46;69.00;101352.09;126307;1099;104201;-81
2022/01/08 03:52:58;;;;;;;44.43;20.57;;;;;;;-1.41;67.96;101358.58;126400;1099;104156;-80
2022/01/08 03:55:30;;;;;;;44.03;20.07;;;;;;;-1.38;69.38;101358.87;126396;1099;104181;-80
2022/01/08 03:58:01;;;;;;;43.67;20.67;;;;;;;-1.34;69.44;101357.50;126324;1099;104444;-80
2022/01/08 04:00:33;;;;;;;38.37;18.03;;;;;;;-1.32;68.83;101354.32;126374;1099;104156;-80
2022/01/08 04:03:07;;;;;;;37.83;15.90;;;;;;;-1.32;68.44;101358.58;126369;1099;104153;-80
2022/01/08 04:05:39;;;;;;;34.08;16.07;;;;;;;-1.33;69.10;101356.75;126378;1099;104632;-80
2022/01/08 04:08:10;;;;;;;29.23;13.57;;;;;;;-1.34;68.54;101358.42;126350;1099;104341;-80
2022/01/08 04:10:42;;;;;;;32.97;15.17;;;;;;;-1.36;69.17;101359.02;126305;1099;104156;-80
2022/01/08 04:13:17;;;;;;;32.53;15.57;;;;;;;-1.37;68.85;101349.47;126367;1099;104156;-80
2022/01/08 04:15:51;;;;;;;34.40;15.93;;;;;;;-1.38;69.21;101342.53;126396;1099;104152;-81
2022/01/08 04:18:22;;;;;;;31.67;14.60;;;;;;;-1.36;69.03;101336.75;126407;1099;104150;-80
2022/01/08 04:21:11;;;;;;;36.17;15.63;;;;;;;-1.35;68.09;101330.84;126351;1099;105455;-81
2022/01/08 04:23:42;;;;;;;31.07;14.30;;;;;;;-1.34;68.21;101324.02;126365;1099;104146;-80
2022/01/08 04:26:13;;;;;;;34.20;13.87;;;;;;;-1.34;69.48;101322.38;126287;1099;104194;-81
2022/01/08 04:28:45;;;;;;;30.73;14.80;;;;;;;-1.37;69.60;101305.70;126372;1099;104666;-81
2022/01/08 04:31:17;;;;;;;34.93;15.43;;;;;;;-1.38;68.88;101306.48;126327;1099;104179;-81
2022/01/08 04:33:48;;;;;;;41.30;17.97;;;;;;;-1.40;69.42;101320.86;126389;1098;104165;-80
2022/01/08 04:36:20;;;;;;;36.37;17.83;;;;;;;-1.41;69.27;101337.98;126356;1099;104185;-79
2022/01/08 04:38:53;;;;;;;37.90;17.53;;;;;;;-1.44;68.67;101340.26;126351;1099;104175;-80
2022/01/08 04:41:25;;;;;;;37.30;17.07;;;;;;;-1.44;68.86;101340.26;126280;1099;104194;-80
2022/01/08 04:43:56;;;;;;;36.90;17.83;;;;;;;-1.42;68.30;101341.30;126295;1099;104252;-79
2022/01/08 04:46:28;;;;;;;42.87;18.93;;;;;;;-1.39;68.74;101338.13;126374;1099;104245;-80
2022/01/08 04:48:59;;;;;;;36.83;17.57;;;;;;;-1.40;69.30;101342.38;126263;1099;104161;-79
2022/01/08 04:51:33;;;;;;;35.27;16.30;;;;;;;-1.41;68.55;101337.09;126284;1099;105308;-80
2022/01/08 04:54:05;;;;;;;35.33;16.77;;;;;;;-1.42;68.83;101335.26;126371;1098;104172;-79
2022/01/08 04:56:36;;;;;;;34.13;15.93;;;;;;;-1.40;69.14;101339.80;126348;1099;104575;-80
2022/01/08 04:59:07;;;;;;;35.27;16.77;;;;;;;-1.40;68.66;101336.30;126376;1099;105213;-81
2022/01/08 05:01:41;;;;;;;33.93;16.83;;;;;;;-1.42;69.67;101322.39;126347;1099;104217;-80
2022/01/08 05:04:12;;;;;;;35.90;15.93;;;;;;;-1.45;69.45;101328.14;126376;1098;104162;-80
2022/01/08 05:06:44;;;;;;;31.67;15.80;;;;;;;-1.45;69.28;101330.70;126395;1099;104213;-80
2022/01/08 05:09:15;;;;;;;29.70;14.70;;;;;;;-1.46;68.70;101331.48;126422;1099;104178;-80
2022/01/08 05:11:48;;;;;;;30.73;13.90;;;;;;;-1.46;70.07;101326.34;126373;1099;104152;-79
2022/01/08 05:14:19;;;;;;;28.77;13.73;;;;;;;-1.45;68.68;101323.91;126398;1099;104146;-79
2022/01/08 05:16:58;;;;;;;31.07;14.10;;;;;;;-1.43;69.21;101328.28;126440;1099;104191;-80
2022/01/08 05:19:42;;;;;;;30.60;13.73;;;;;;;-1.40;68.96;101334.66;126262;1099;104149;-81
2022/01/08 05:22:23;;;;;;;26.05;12.28;;;;;;;-1.38;69.12;101330.55;126259;1099;105576;-81
2022/01/08 05:24:54;;;;;;;27.27;12.60;;;;;;;-1.36;69.15;101323.88;125384;1099;104220;-82
2022/01/08 05:27:26;;;;;;;28.73;11.80;;;;;;;-1.33;69.96;101324.17;126275;1099;104223;-81
2022/01/08 05:29:57;;;;;;;26.33;11.63;;;;;;;-1.31;68.97;101326.89;126199;1099;104179;-81
2022/01/08 05:32:28;;;;;;;24.30;10.63;;;;;;;-1.30;69.70;101320.99;126138;1098;104213;-81
2022/01/08 05:35:02;;;;;;;25.40;10.00;;;;;;;-1.30;69.29;101318.42;126309;1099;104262;-80
2022/01/08 05:37:47;;;;;;;21.97;9.47;;;;;;;-1.28;69.87;101314.31;125484;1099;104181;-81
2022/01/08 05:40:19;;;;;;;21.40;10.03;;;;;;;-1.27;69.49;101313.56;126242;1099;104211;-82
2022/01/08 05:42:51;;;;;;;22.70;9.80;;;;;;;-1.25;69.48;101314.61;126163;1099;104211;-80
2022/01/08 05:45:22;;;;;;;24.80;9.47;;;;;;;-1.23;69.29;101312.18;126202;1099;104107;-81
2022/01/08 05:47:54;;;;;;;22.07;9.70;;;;;;;-1.21;68.72;101309.00;126189;1099;104268;-81
2022/01/08 05:50:25;;;;;;;22.63;10.30;;;;;;;-1.19;69.79;101311.72;126249;1099;104188;-81
2022/01/08 05:52:56;;;;;;;24.10;9.83;;;;;;;-1.19;69.80;101317.77;126199;1099;102577;-82
2022/01/08 05:55:28;;;;;;;24.50;9.87;;;;;;;-1.17;69.68;101307.61;126182;1099;104602;-81
2022/01/08 05:57:59;;;;;;;20.33;9.47;;;;;;;-1.16;69.36;101314.59;126207;1099;104204;-82
2022/01/08 06:00:31;;;;;;;22.53;9.67;;;;;;;-1.15;68.78;101312.16;126219;1099;104150;-81
2022/01/08 06:03:02;;;;;;;22.67;9.17;;;;;;;-1.14;69.91;101313.98;126185;1099;104323;-80
2022/01/08 06:05:34;;;;;;;21.23;8.60;;;;;;;-1.11;69.75;101314.28;126307;1099;104137;-80
2022/01/08 06:08:08;;;;;;;23.00;10.00;;;;;;;-1.09;69.95;101312.75;126349;1099;104187;-80
2022/01/08 06:10:39;;;;;;;21.42;8.70;;;;;;;-1.07;69.39;101318.05;126375;1098;104316;-80
2022/01/08 06:13:10;;;;;;;20.83;9.17;;;;;;;-1.06;69.42;101312.14;126321;1099;104249;-80
2022/01/08 06:15:42;;;;;;;21.97;9.07;;;;;;;-1.04;69.83;101312.25;126270;1099;104146;-80
2022/01/08 06:18:14;;;;;;;21.93;9.07;;;;;;;-1.04;70.01;101302.88;126340;1098;104179;-79
2022/01/08 06:20:46;;;;;;;20.93;8.93;;;;;;;-1.03;69.43;101296.94;126371;1099;104159;-79
2022/01/08 06:23:17;;;;;;;21.10;8.83;;;;;;;-1.00;68.86;101306.64;126253;1099;104255;-79
2022/01/08 06:25:50;;;;;;;20.57;8.67;;;;;;;-0.98;69.17;101302.53;126373;1099;104229;-80
2022/01/08 06:28:25;;;;;;;19.57;8.73;;;;;;;-0.96;68.89;101303.60;126334;1099;104248;-80
2022/01/08 06:30:56;;;;;;;23.43;9.47;;;;;;;-0.93;69.34;101309.05;126253;1098;104201;-81
2022/01/08 06:33:28;;;;;;;22.97;8.63;;;;;;;-0.94;68.84;101302.96;126156;1099;104255;-80
2022/01/08 06:36:00;;;;;;;20.50;8.47;;;;;;;-0.90;69.22;101309.34;126261;1099;104157;-80
2022/01/08 06:38:31;;;;;;;20.23;8.73;;;;;;;-0.88;69.91;101312.06;126307;1099;104178;-78
2022/01/08 06:41:04;;;;;;;22.97;9.00;;;;;;;-0.86;69.41;101310.52;126006;1098;104262;-81
2022/01/08 06:43:39;;;;;;;22.50;8.53;;;;;;;-0.83;69.44;101315.97;126074;1099;104290;-81
2022/01/08 06:46:11;;;;;;;19.17;8.73;;;;;;;-0.81;69.43;101319.58;126128;1099;104716;-80
2022/01/08 06:48:42;;;;;;;20.53;8.20;;;;;;;-0.80;68.92;101317.15;126101;1099;104182;-81
2022/01/08 06:51:14;;;;;;;22.47;8.77;;;;;;;-0.75;69.74;101325.31;126235;1099;104153;-79
2022/01/08 06:53:49;;;;;;;20.50;8.07;;;;;;;-0.72;69.77;101323.02;126211;1099;104232;-80
2022/01/08 06:56:20;;;;;;;18.65;8.35;;;;;;;-0.66;69.81;101317.55;126295;1099;104195;-79
2022/01/08 06:58:52;;;;;;;21.93;8.47;;;;;;;-0.62;69.28;101317.09;126249;1099;104169;-80
2022/01/08 07:01:24;;;;;;;18.40;8.00;;;;;;;-0.58;69.45;101308.84;126103;1099;104203;-80
2022/01/08 07:03:56;;;;;;;20.57;7.83;;;;;;;-0.56;69.05;101304.77;126241;1099;104249;-79
2022/01/08 07:06:32;;;;;;;18.97;8.13;;;;;;;-0.56;70.13;101304.77;126231;1099;104290;-79
2022/01/08 07:09:06;;;;;;;21.20;8.53;;;;;;;-0.57;69.65;101301.26;126186;1099;104204;-80
2022/01/08 07:11:38;;;;;;;19.27;7.37;;;;;;;-0.55;69.53;101299.75;126140;1099;104239;-81
2022/01/08 07:14:13;;;;;;;17.37;7.93;;;;;;;-0.51;70.38;101289.69;126285;1098;104583;-80
2022/01/08 07:16:46;;;;;;;17.60;7.47;;;;;;;-0.50;69.46;101289.83;126383;1099;104156;-80
2022/01/08 07:19:18;;;;;;;18.33;7.80;;;;;;;-0.46;69.81;101284.20;126367;1099;104156;-80
2022/01/08 07:21:50;;;;;;;19.53;7.70;;;;;;;-0.42;69.50;101290.54;126354;1099;104252;-80
2022/01/08 07:24:21;;;;;;;20.50;7.90;;;;;;;-0.37;69.15;101289.31;125464;1099;104242;-80
2022/01/08 07:26:54;;;;;;;22.50;8.30;;;;;;;-0.34;69.21;101293.83;126322;1099;104139;-81
2022/01/08 07:32:46;;;;;;;17.53;7.50;;;;;;;-0.27;69.85;101288.47;125839;1099;104328;-82
2022/01/08 07:35:21;;;;;;;15.27;6.30;;;;;;;-0.24;69.96;101291.34;126192;1099;104230;-80
2022/01/08 07:37:54;;;;;;;17.60;7.80;;;;;;;-0.22;69.49;101284.63;126367;1099;104246;-80
2022/01/08 07:40:26;;;;;;;20.47;8.10;;;;;;;-0.20;70.09;101289.17;126173;1099;104249;-81
2022/01/08 07:42:57;;;;;;;19.37;8.23;;;;;;;-0.14;70.23;101288.84;126088;1099;104223;-81
2022/01/08 07:45:32;;;;;;;18.63;7.87;;;;;;;-0.08;69.50;101289.40;126330;1099;104296;-80
2022/01/08 07:48:01;;;;;;;;;;;;;;;-0.06;70.33;101285.27;126210;1099;104271;-81
2022/01/08 07:50:34;;;;;;;18.70;6.97;;;;;;;-0.02;69.61;101289.95;126163;1099;105481;-81
2022/01/08 07:53:05;;;;;;;17.07;7.50;;;;;;;0.05;69.50;101285.31;126163;1099;104181;-81
2022/01/08 07:55:38;;;;;;;16.40;7.70;;;;;;;0.11;70.26;101283.29;126276;1099;104184;-80
2022/01/08 07:58:09;;;;;;;15.40;7.03;;;;;;;0.16;70.27;101274.30;126287;1099;104251;-79
2022/01/08 08:00:43;;;;;;;17.63;7.63;;;;;;;0.21;69.80;101267.87;126287;1099;104194;-80
2022/01/08 08:03:14;;;;;;;18.20;7.45;;;;;;;0.23;70.14;101271.48;126330;1099;104146;-78
2022/01/08 08:05:46;;;;;;;15.25;7.10;;;;;;;0.25;70.07;101267.38;126138;1099;104280;-79
2022/01/08 08:08:20;;;;;;;18.13;7.53;;;;;;;0.28;69.82;101275.41;126292;1099;104230;-79
2022/01/08 08:10:52;;;;;;;19.35;7.92;;;;;;;0.31;70.09;101267.94;126301;1099;104223;-79
2022/01/08 08:13:24;;;;;;;17.93;7.43;;;;;;;0.36;69.75;101268.34;125348;1099;104280;-79
2022/01/08 08:15:56;;;;;;;15.60;7.27;;;;;;;0.41;70.14;101261.00;126305;1099;104025;-79
2022/01/08 08:18:28;;;;;;;20.20;7.87;;;;;;;0.46;69.90;101259.72;126257;1099;104287;-79
2022/01/08 08:21:00;;;;;;;19.20;7.80;;;;;;;0.49;69.79;101260.89;126382;1099;104280;-80
2022/01/08 08:23:33;;;;;;;18.20;8.20;;;;;;;0.53;69.92;101252.65;126330;1099;104147;-80
2022/01/08 08:26:04;;;;;;;19.07;7.97;;;;;;;0.56;69.93;101241.66;126285;1099;104223;-81
2022/01/08 08:28:35;;;;;;;21.50;7.70;;;;;;;0.57;69.98;101243.48;126423;1099;103986;-80
2022/01/08 08:31:07;;;;;;;15.47;7.20;;;;;;;0.56;69.72;101243.34;126227;1099;104149;-80
2022/01/08 08:33:39;;;;;;;21.73;8.30;;;;;;;0.55;69.96;101234.70;126190;1099;104152;-82
2022/01/08 08:36:11;;;;;;;18.73;7.83;;;;;;;0.55;69.82;101232.12;126324;1099;104264;-81
2022/01/08 08:38:45;;;;;;;17.60;7.40;;;;;;;0.57;69.74;101230.56;126283;1099;104188;-81
2022/01/08 08:41:16;;;;;;;21.47;6.80;;;;;;;0.58;69.93;101224.64;126358;1099;104159;-79
2022/01/08 08:43:47;;;;;;;18.37;7.03;;;;;;;0.61;69.76;101218.81;126284;1099;104144;-79
2022/01/08 08:46:20;;;;;;;16.07;6.90;;;;;;;0.63;69.86;101212.13;126283;1099;104223;-80
2022/01/08 08:48:54;;;;;;;18.27;6.73;;;;;;;0.65;69.89;101219.22;126396;1098;104198;-78
2022/01/08 08:51:25;;;;;;;15.75;6.67;;;;;;;0.69;70.12;101216.14;126262;1099;104219;-80
2022/01/08 08:53:57;;;;;;;19.90;7.57;;;;;;;0.71;69.87;101206.83;126338;1099;104182;-79
2022/01/08 08:56:32;;;;;;;18.30;7.37;;;;;;;0.72;70.03;101200.01;126287;1099;104246;-79
2022/01/08 08:59:03;;;;;;;18.03;7.20;;;;;;;0.77;69.95;101197.83;126365;1099;104181;-79
2022/01/08 09:01:34;;;;;;;20.57;7.87;;;;;;;0.83;69.97;101196.66;126366;1099;104305;-79
2022/01/08 09:04:07;;;;;;;16.83;7.17;;;;;;;0.85;70.01;101189.94;126307;1099;104149;-80
2022/01/08 09:06:39;;;;;;;16.70;7.57;;;;;;;0.85;69.76;101181.28;126238;1099;104243;-79
2022/01/08 09:09:11;;;;;;;18.07;8.03;;;;;;;0.86;69.84;101184.00;126291;1099;104168;-79
2022/01/08 09:11:44;;;;;;;18.10;7.30;;;;;;;0.88;70.10;101186.72;126316;1099;104149;-80
2022/01/08 09:14:16;;;;;;;18.33;7.27;;;;;;;0.93;70.01;101182.84;126368;1099;104319;-79
2022/01/08 09:16:49;;;;;;;17.80;7.80;;;;;;;0.98;70.25;101178.98;126254;1099;104264;-79
2022/01/08 09:19:24;;;;;;;16.77;7.50;;;;;;;1.02;69.87;101169.80;126379;1099;104213;-79
2022/01/08 09:21:56;;;;;;;19.00;7.90;;;;;;;1.06;70.29;101175.36;126371;1099;104157;-80
2022/01/08 09:24:28;;;;;;;20.23;8.43;;;;;;;1.13;69.87;101166.43;126398;1099;104181;-79
2022/01/08 09:27:00;;;;;;;19.83;7.93;;;;;;;1.25;70.00;101156.23;126267;1099;104252;-79
2022/01/08 09:29:35;;;;;;;18.33;8.17;;;;;;;1.34;70.09;101150.89;126336;1099;104252;-79
2022/01/08 09:32:09;;;;;;;19.13;8.43;;;;;;;1.43;70.27;101150.00;126341;1099;105309;-80
2022/01/08 09:34:39;;;;;;;;;;;;;;;1.52;70.25;101148.94;126332;1099;104153;-78
2022/01/08 09:37:10;;;;;;;19.23;7.77;;;;;;;1.57;69.65;101155.37;126283;1099;104165;-78
2022/01/08 09:39:42;;;;;;;19.00;7.90;;;;;;;1.57;69.97;101135.61;126310;1099;104178;-78
2022/01/08 09:42:13;;;;;;;21.37;8.70;;;;;;;1.55;69.66;101136.25;126287;1099;104149;-79
2022/01/08 09:44:46;;;;;;;22.87;8.30;;;;;;;1.52;69.34;101130.83;126276;1099;104152;-80
2022/01/08 09:47:17;;;;;;;19.30;7.90;;;;;;;1.53;69.96;101124.89;126305;1099;104252;-79
2022/01/08 09:49:48;;;;;;;19.13;8.47;;;;;;;1.58;70.09;101116.70;126369;1098;104134;-79
2022/01/08 09:52:20;;;;;;;19.47;9.20;;;;;;;1.64;69.70;101110.21;126321;1099;104398;-79
2022/01/08 09:54:55;;;;;;;20.23;8.37;;;;;;;1.71;69.92;101107.35;126319;1099;104249;-79
2022/01/08 09:57:27;;;;;;;20.07;8.00;;;;;;;1.79;70.21;101104.62;126302;1099;104201;-80
2022/01/08 10:00:00;;;;;;;20.23;8.30;;;;;;;1.81;70.04;101094.39;126291;1099;104153;-80
2022/01/08 10:02:31;;;;;;;23.87;9.83;;;;;;;1.82;69.95;101091.00;126382;1099;104316;-79
2022/01/08 10:05:11;;;;;;;20.97;8.47;;;;;;;1.80;69.05;101097.74;126308;1099;104201;-79
2022/01/08 10:07:43;;;;;;;22.53;8.83;;;;;;;1.78;69.50;101089.86;126211;1099;104414;-78
2022/01/08 10:10:17;;;;;;;19.63;7.60;;;;;;;1.82;69.46;101078.05;125420;1099;104233;-79
2022/01/08 10:12:54;;;;;;;19.97;7.80;;;;;;;1.82;69.42;101082.34;126303;1099;104278;-79
2022/01/08 10:18:29;;;;;;;23.40;8.75;;;;;;;1.87;69.44;101073.25;126297;1099;104149;-79
2022/01/08 10:21:14;;;;;;;15.77;7.43;;;;;;;1.90;69.75;101063.14;126339;1099;104153;-79
2022/01/08 10:23:47;;;;;;;16.70;7.47;;;;;;;1.93;69.31;101058.20;125452;1099;104143;-79
2022/01/08 10:26:28;;;;;;;26.13;7.97;;;;;;;1.99;69.71;101058.69;126346;1099;104149;-80
2022/01/08 10:29:02;;;;;;;18.97;7.77;;;;;;;2.01;69.33;101053.64;126329;1099;104159;-79
2022/01/08 10:31:35;;;;;;;22.90;8.77;;;;;;;2.05;69.26;101056.59;126388;1099;104162;-80
2022/01/08 10:34:12;;;;;;;21.00;9.13;;;;;;;2.11;69.33;101040.64;125427;1102;104144;-79
2022/01/08 10:36:46;;;;;;;19.53;8.80;;;;;;;2.16;69.53;101040.20;125392;1102;104178;-79
2022/01/08 10:39:23;;;;;;;19.17;8.50;;;;;;;2.18;69.23;101039.42;126294;1099;104679;-79
2022/01/08 10:41:59;;;;;;;22.87;9.37;;;;;;;2.20;69.26;101027.48;125398;1099;104261;-79
2022/01/08 10:44:35;;;;;;;19.97;8.50;;;;;;;2.27;69.66;101020.31;126328;1099;104190;-80
2022/01/08 10:47:13;;;;;;;24.93;9.57;;;;;;;2.31;68.96;101017.19;126313;1099;104147;-79
2022/01/08 10:49:48;;;;;;;23.97;8.77;;;;;;;2.36;68.65;101021.83;126293;1099;104163;-79
2022/01/08 10:52:21;;;;;;;21.93;9.23;;;;;;;2.40;69.06;101022.19;126287;1098;104207;-79
2022/01/08 10:54:59;;;;;;;22.77;8.90;;;;;;;2.44;69.63;101019.02;126337;1099;104239;-79
2022/01/08 10:57:36;;;;;;;20.63;8.40;;;;;;;2.49;69.33;101022.89;126350;1099;104160;-79
2022/01/08 11:00:13;;;;;;;19.50;8.37;;;;;;;2.48;69.13;101015.00;125345;1099;104322;-79
2022/01/08 11:02:47;;;;;;;21.07;7.77;;;;;;;2.43;68.39;101014.66;126345;1099;104165;-79
2022/01/08 11:05:18;;;;;;;19.90;8.90;;;;;;;2.42;68.59;101014.53;126376;1099;104153;-80
2022/01/08 11:07:50;;;;;;;20.40;8.20;;;;;;;2.40;69.44;101017.01;126393;1099;104153;-79
2022/01/08 11:10:24;;;;;;;19.90;8.83;;;;;;;2.41;68.60;101008.42;126330;1099;104182;-80
2022/01/08 11:12:57;;;;;;;19.80;8.10;;;;;;;2.46;69.08;101001.94;126347;1099;104233;-79
2022/01/08 11:15:49;;;;;;;20.17;8.40;;;;;;;2.51;69.08;101008.36;126283;1099;104570;-79
2022/01/08 11:18:24;;;;;;;18.20;8.10;;;;;;;2.58;69.34;101006.23;126361;1099;104165;-80
2022/01/08 11:21:01;;;;;;;20.50;8.20;;;;;;;2.64;69.15;100992.04;126328;1099;104277;-80
2022/01/08 11:23:36;;;;;;;19.40;8.13;;;;;;;2.75;69.43;100994.55;125417;1099;104171;-79
2022/01/08 11:26:12;;;;;;;20.10;8.10;;;;;;;2.77;68.72;100982.59;126250;1099;104287;-81
2022/01/08 11:28:47;;;;;;;21.70;9.27;;;;;;;2.80;69.33;100982.83;126224;1099;104242;-78
2022/01/08 11:31:21;;;;;;;22.90;8.90;;;;;;;2.84;69.55;100983.17;126265;1098;104147;-79
2022/01/08 11:33:59;;;;;;;20.90;8.27;;;;;;;2.86;68.70;100983.28;126277;1099;104188;-79
2022/01/08 11:36:32;;;;;;;19.93;9.00;;;;;;;2.84;69.31;100970.20;126253;1099;104159;-79
2022/01/08 11:39:08;;;;;;;20.75;8.75;;;;;;;2.83;68.84;100972.69;126208;1099;104222;-79
2022/01/08 11:41:41;;;;;;;20.13;8.73;;;;;;;2.75;69.64;100972.11;126304;1099;102960;-80
2022/01/08 11:44:13;;;;;;;20.83;9.13;;;;;;;2.72;68.81;100971.00;126308;1099;104156;-79
2022/01/08 11:46:46;;;;;;;19.20;8.53;;;;;;;2.69;69.29;100967.36;126328;1099;104236;-80
2022/01/08 11:49:18;;;;;;;24.25;9.20;;;;;;;2.70;69.66;100965.70;126314;1099;104149;-79